createdAt,value
2018-12-05T00:00:59.741Z,5.60
2018-12-05T00:03:31.907Z,6.40
2018-12-05T00:06:06.477Z,5.70
2018-12-05T00:08:39.188Z,5.20
2018-12-05T00:11:11.743Z,5.00
2018-12-05T00:13:43.839Z,5.17
2018-12-05T00:16:16.862Z,4.83
2018-12-05T00:18:49.746Z,4.70
2018-12-05T00:21:22.655Z,4.70
2018-12-05T00:23:55.004Z,4.77
2018-12-05T00:26:27.708Z,5.20
2018-12-05T00:29:00.620Z,5.40
2018-12-05T00:31:33.662Z,5.43
2018-12-05T00:34:06.705Z,5.17
2018-12-05T00:36:38.868Z,5.10
2018-12-05T00:39:10.973Z,5.40
2018-12-05T00:41:44.009Z,5.53
2018-12-05T00:44:17.055Z,6.03
2018-12-05T00:46:50.131Z,7.10
2018-12-05T00:49:23.045Z,5.73
2018-12-05T00:51:55.192Z,5.03
2018-12-05T00:54:27.990Z,4.83
2018-12-05T00:57:00.222Z,4.90
2018-12-05T00:59:34.008Z,5.10
2018-12-05T01:02:07.328Z,4.87
2018-12-05T01:04:40.662Z,5.33
2018-12-05T01:07:15.358Z,4.93
2018-12-05T01:09:47.823Z,4.97
2018-12-05T01:12:18.316Z,5.20
2018-12-05T01:14:50.622Z,5.67
2018-12-05T01:17:22.801Z,5.43
2018-12-05T01:19:54.876Z,5.97
2018-12-05T01:22:27.931Z,5.73
2018-12-05T01:25:00.371Z,6.00
2018-12-05T01:27:33.298Z,5.83
2018-12-05T01:30:06.486Z,5.63
2018-12-05T01:32:39.427Z,6.73
2018-12-05T01:35:11.730Z,6.70
2018-12-05T01:37:44.016Z,6.50
2018-12-05T01:40:16.413Z,5.87
2018-12-05T01:42:50.418Z,6.50
2018-12-05T01:45:22.724Z,6.33
2018-12-05T01:47:55.750Z,7.00
2018-12-05T01:50:28.761Z,6.40
2018-12-05T01:53:00.888Z,6.90
2018-12-05T01:55:33.660Z,6.50
2018-12-05T01:58:05.971Z,7.17
2018-12-05T02:00:38.419Z,7.20
2018-12-05T02:03:11.428Z,6.30
2018-12-05T02:05:43.620Z,6.33
2018-12-05T02:08:16.700Z,7.30
2018-12-05T02:10:49.141Z,6.17
2018-12-05T02:13:22.122Z,5.87
2018-12-05T02:15:54.452Z,5.80
2018-12-05T02:18:28.323Z,5.80
2018-12-05T02:21:00.803Z,5.87
2018-12-05T02:23:33.221Z,5.23
2018-12-05T02:26:05.650Z,5.30
2018-12-05T02:28:38.520Z,4.97
2018-12-05T02:31:10.672Z,4.93
2018-12-05T02:33:45.125Z,5.30
2018-12-05T02:36:17.472Z,4.50
2018-12-05T02:38:49.847Z,4.60
2018-12-05T02:41:21.901Z,4.17
2018-12-05T02:43:54.151Z,4.40
2018-12-05T02:46:26.313Z,4.43
2018-12-05T02:48:58.533Z,4.37
2018-12-05T02:51:31.523Z,4.30
2018-12-05T02:54:04.051Z,4.27
2018-12-05T02:56:37.224Z,4.03
2018-12-05T02:59:10.038Z,4.40
2018-12-05T03:01:42.129Z,4.23
2018-12-05T03:04:14.627Z,4.10
2018-12-05T03:06:47.425Z,4.67
2018-12-05T03:09:19.792Z,5.20
2018-12-05T03:11:52.026Z,5.43
2018-12-05T03:14:24.317Z,4.73
2018-12-05T03:16:56.740Z,4.83
2018-12-05T03:19:29.087Z,4.47
2018-12-05T03:22:01.270Z,4.97
2018-12-05T03:24:34.296Z,4.50
2018-12-05T03:27:07.285Z,4.70
2018-12-05T03:29:39.513Z,4.90
2018-12-05T03:32:13.902Z,5.23
2018-12-05T03:34:46.229Z,4.87
2018-12-05T03:37:18.336Z,5.50
2018-12-05T03:39:50.486Z,5.00
2018-12-05T03:42:22.787Z,5.17
2018-12-05T03:44:55.835Z,5.13
2018-12-05T03:47:28.040Z,5.00
2018-12-05T03:50:02.255Z,5.90
2018-12-05T03:52:34.475Z,5.40
2018-12-05T03:55:06.834Z,5.43
2018-12-05T03:57:39.625Z,4.40
2018-12-05T04:00:14.273Z,4.40
2018-12-05T04:02:47.094Z,4.50
2018-12-05T04:05:20.160Z,4.50
2018-12-05T04:07:53.161Z,4.50
2018-12-05T04:10:26.111Z,4.50
2018-12-05T04:12:59.002Z,4.40
2018-12-05T04:15:31.198Z,4.60
2018-12-05T04:18:03.473Z,4.73
2018-12-05T04:20:36.502Z,4.90
2018-12-05T04:23:10.958Z,4.67
2018-12-05T04:25:43.834Z,5.30
2018-12-05T04:28:15.939Z,5.47
2018-12-05T04:30:48.281Z,5.63
2018-12-05T04:33:22.786Z,5.40
2018-12-05T04:35:53.143Z,5.40
2018-12-05T04:38:26.028Z,5.60
2018-12-05T04:40:58.315Z,5.03
2018-12-05T04:43:30.605Z,4.97
2018-12-05T04:46:03.068Z,5.93
2018-12-05T04:48:35.253Z,5.13
2018-12-05T04:51:08.247Z,6.03
2018-12-05T04:53:41.290Z,5.80
2018-12-05T04:56:14.348Z,6.53
2018-12-05T04:58:46.553Z,5.97
2018-12-05T05:01:18.767Z,6.07
2018-12-05T05:03:51.033Z,6.60
2018-12-05T05:06:24.057Z,6.77
2018-12-05T05:08:56.161Z,6.30
2018-12-05T05:11:30.767Z,6.73
2018-12-05T05:14:03.440Z,6.43
2018-12-05T05:16:35.581Z,5.53
2018-12-05T05:19:08.714Z,5.90
2018-12-05T05:21:41.760Z,6.73
2018-12-05T05:24:13.853Z,6.20
2018-12-05T05:26:46.941Z,6.63
2018-12-05T05:29:19.712Z,6.33
2018-12-05T05:31:52.748Z,7.43
2018-12-05T05:34:24.848Z,7.50
2018-12-05T05:36:57.030Z,6.90
2018-12-05T05:39:29.097Z,6.60
2018-12-05T05:42:02.116Z,6.50
2018-12-05T05:44:35.102Z,6.40
2018-12-05T05:47:07.429Z,6.70
2018-12-05T05:49:40.522Z,6.87
2018-12-05T05:52:12.792Z,6.17
2018-12-05T05:54:44.884Z,5.73
2018-12-05T05:57:16.983Z,6.00
2018-12-05T05:59:49.897Z,5.23
2018-12-05T06:02:22.121Z,5.40
2018-12-05T06:04:52.455Z,5.53
2018-12-05T06:07:24.673Z,4.93
2018-12-05T06:09:56.838Z,5.70
2018-12-05T06:12:29.202Z,5.87
2018-12-05T06:15:02.225Z,5.43
2018-12-05T06:17:34.431Z,5.70
2018-12-05T06:20:06.847Z,5.80
2018-12-05T06:22:39.832Z,5.57
2018-12-05T06:25:12.083Z,5.43
2018-12-05T06:27:44.340Z,21.47
2018-12-05T06:30:17.376Z,7.00
2018-12-05T06:32:50.862Z,6.10
2018-12-05T06:35:23.938Z,5.50
2018-12-05T06:37:56.273Z,5.67
2018-12-05T06:40:29.319Z,6.67
2018-12-05T06:43:02.437Z,6.60
2018-12-05T06:45:35.392Z,6.60
2018-12-05T06:48:04.478Z,6.77
2018-12-05T06:50:33.531Z,6.87
2018-12-05T06:53:02.590Z,6.87
2018-12-05T06:55:38.848Z,6.17
2018-12-05T06:58:02.735Z,6.37
2018-12-05T07:00:31.820Z,7.23
2018-12-05T07:03:00.996Z,8.90
2018-12-05T07:05:30.073Z,7.27
2018-12-05T07:07:59.131Z,6.70
2018-12-05T07:10:28.207Z,6.30
2018-12-05T07:12:56.712Z,7.10
2018-12-05T07:15:25.775Z,9.65
2018-12-05T07:17:56.553Z,6.97
2018-12-05T07:20:29.770Z,7.17
2018-12-05T07:23:00.646Z,6.50
2018-12-05T07:25:32.848Z,6.77
2018-12-05T07:28:05.222Z,6.87
2018-12-05T07:30:38.032Z,7.80
2018-12-05T07:33:09.493Z,7.13
2018-12-05T07:35:45.857Z,7.20
2018-12-05T07:38:19.874Z,7.47
2018-12-05T07:40:55.043Z,9.20
2018-12-05T07:43:27.798Z,7.60
2018-12-05T07:45:58.909Z,7.13
2018-12-05T07:48:33.762Z,7.30
2018-12-05T07:51:05.125Z,7.07
2018-12-05T07:53:37.978Z,7.23
2018-12-05T07:56:13.453Z,7.10
2018-12-05T07:58:48.043Z,7.07
2018-12-05T08:01:21.051Z,7.73
2018-12-05T08:03:53.371Z,6.93
2018-12-05T08:06:28.967Z,7.60
2018-12-05T08:09:01.375Z,7.83
2018-12-05T08:11:35.981Z,7.73
2018-12-05T08:16:40.726Z,7.73
2018-12-05T08:19:14.899Z,7.57
2018-12-05T08:21:48.151Z,8.20
2018-12-05T08:24:23.454Z,7.90
2018-12-05T08:26:57.519Z,8.03
2018-12-05T08:29:30.861Z,8.40
2018-12-05T08:32:03.555Z,7.50
2018-12-05T08:34:37.087Z,7.77
2018-12-05T08:37:08.887Z,7.87
2018-12-05T08:39:38.266Z,8.07
2018-12-05T08:42:07.450Z,9.70
2018-12-05T08:44:36.515Z,9.93
2018-12-05T08:47:06.456Z,8.57
2018-12-05T08:49:39.921Z,7.40
2018-12-05T08:52:17.360Z,7.10
2018-12-05T08:54:51.156Z,6.87
2018-12-05T08:57:21.292Z,7.57
2018-12-05T08:59:50.756Z,7.70
2018-12-05T09:02:25.445Z,7.90
2018-12-05T09:04:57.941Z,8.07
2018-12-05T09:07:43.861Z,7.87
2018-12-05T09:10:16.602Z,8.00
2018-12-05T09:12:56.896Z,8.47
2018-12-05T09:15:35.510Z,8.07
2018-12-05T09:18:08.592Z,8.10
2018-12-05T09:20:40.669Z,7.53
2018-12-05T09:23:12.992Z,7.40
2018-12-05T09:25:48.340Z,7.77
2018-12-05T09:28:21.184Z,6.90
2018-12-05T09:30:54.136Z,6.60
2018-12-05T09:33:26.536Z,6.77
2018-12-05T09:35:58.745Z,6.90
2018-12-05T09:38:31.054Z,6.33
2018-12-05T09:41:04.153Z,6.53
2018-12-05T09:43:37.098Z,6.60
2018-12-05T09:46:09.578Z,7.30
2018-12-05T09:48:42.808Z,7.63
2018-12-05T09:51:15.826Z,6.87
2018-12-05T09:53:49.093Z,6.90
2018-12-05T09:56:22.033Z,7.10
2018-12-05T09:58:54.256Z,6.83
2018-12-05T10:01:27.242Z,6.63
2018-12-05T10:04:00.293Z,6.77
2018-12-05T10:06:33.213Z,6.60
2018-12-05T10:09:08.059Z,6.80
2018-12-05T10:11:37.191Z,6.87
2018-12-05T10:14:10.019Z,6.73
2018-12-05T10:16:40.817Z,6.77
2018-12-05T10:19:13.798Z,6.80
2018-12-05T10:21:42.877Z,6.77
2018-12-05T10:24:18.009Z,6.87
2018-12-05T10:26:50.296Z,7.47
2018-12-05T10:29:25.472Z,6.57
2018-12-05T10:31:54.545Z,6.40
2018-12-05T10:34:31.036Z,6.70
2018-12-05T10:37:00.235Z,7.03
2018-12-05T10:39:35.380Z,6.67
2018-12-05T10:42:10.305Z,7.00
2018-12-05T10:44:43.002Z,6.90
2018-12-05T10:47:18.368Z,7.50
2018-12-05T10:49:53.955Z,7.90
2018-12-05T10:55:32.417Z,6.87
2018-12-05T10:58:04.630Z,7.93
2018-12-05T11:00:45.345Z,8.70
2018-12-05T11:03:23.993Z,7.50
2018-12-05T11:06:03.901Z,7.10
2018-12-05T11:08:41.366Z,6.80
2018-12-05T11:11:19.344Z,7.20
2018-12-05T11:13:57.250Z,7.30
2018-12-05T11:16:34.826Z,7.60
2018-12-05T11:19:12.788Z,7.13
2018-12-05T11:21:51.006Z,7.00
2018-12-05T11:24:28.950Z,7.47
2018-12-05T11:26:58.248Z,7.37
2018-12-05T11:29:31.364Z,7.33
2018-12-05T11:32:05.930Z,7.60
2018-12-05T11:34:38.284Z,6.73
2018-12-05T11:37:10.477Z,7.03
2018-12-05T11:39:42.696Z,7.97
2018-12-05T11:45:12.552Z,8.90
2018-12-05T11:47:45.056Z,7.83
2018-12-05T11:50:16.119Z,8.17
2018-12-05T11:52:46.707Z,7.90
2018-12-05T11:55:22.003Z,10.80
2018-12-05T11:57:54.792Z,8.40
2018-12-05T12:00:24.632Z,7.93
2018-12-05T12:02:59.681Z,7.73
2018-12-05T12:05:32.468Z,7.73
2018-12-05T12:08:05.255Z,7.60
2018-12-05T12:10:40.061Z,8.40
2018-12-05T12:13:12.683Z,7.97
2018-12-05T12:15:45.652Z,7.57
2018-12-05T12:18:18.621Z,7.97
2018-12-05T12:20:51.537Z,8.17
2018-12-05T12:23:24.542Z,8.30
2018-12-05T12:25:59.900Z,8.83
2018-12-05T12:31:35.969Z,7.93
2018-12-05T12:34:08.141Z,8.87
2018-12-05T12:36:41.216Z,8.87
2018-12-05T12:39:14.283Z,8.90
2018-12-05T12:41:47.259Z,7.97
2018-12-05T12:44:22.725Z,8.57
2018-12-05T12:46:55.125Z,8.23
2018-12-05T12:49:30.451Z,8.27
2018-12-05T12:52:05.560Z,7.93
2018-12-05T12:54:40.455Z,8.37
2018-12-05T12:57:09.554Z,8.00
2018-12-05T12:59:43.997Z,8.50
2018-12-05T13:02:16.545Z,8.00
2018-12-05T13:04:49.523Z,8.70
2018-12-05T13:07:21.635Z,8.67
2018-12-05T13:09:54.580Z,8.50
2018-12-05T13:12:29.453Z,8.67
2018-12-05T13:15:04.094Z,8.80
2018-12-05T13:17:36.555Z,8.93
2018-12-05T13:20:12.789Z,8.97
2018-12-05T13:22:47.918Z,8.93
2018-12-05T13:25:22.869Z,9.10
2018-12-05T13:27:55.455Z,9.73
2018-12-05T13:30:30.596Z,9.80
2018-12-05T13:33:01.049Z,8.97
2018-12-05T13:35:34.148Z,9.83
2018-12-05T13:38:07.016Z,9.30
2018-12-05T13:40:40.105Z,9.33
2018-12-05T13:43:11.137Z,9.20
2018-12-05T13:45:44.372Z,8.73
2018-12-05T13:48:17.150Z,9.23
2018-12-05T13:50:52.385Z,8.77
2018-12-05T13:53:22.928Z,9.10
2018-12-05T13:55:58.095Z,9.03
2018-12-05T13:58:30.839Z,8.77
2018-12-05T14:01:03.685Z,9.00
2018-12-05T14:03:38.182Z,9.13
2018-12-05T14:06:10.609Z,9.03
2018-12-05T14:08:43.674Z,9.60
2018-12-05T14:11:18.990Z,9.10
2018-12-05T14:13:53.003Z,10.60
2018-12-05T14:16:31.935Z,9.33
2018-12-05T14:19:07.097Z,8.57
2018-12-05T14:21:41.596Z,8.97
2018-12-05T14:24:10.678Z,9.33
2018-12-05T14:26:46.129Z,9.67
2018-12-05T14:29:21.065Z,9.80
2018-12-05T14:31:53.916Z,10.00
2018-12-05T14:34:24.104Z,9.67
2018-12-05T14:36:57.059Z,9.57
2018-12-05T14:39:29.229Z,9.10
2018-12-05T14:42:02.409Z,9.17
2018-12-05T14:44:35.227Z,9.40
2018-12-05T14:47:09.719Z,9.03
2018-12-05T14:49:42.335Z,10.10
2018-12-05T14:52:17.600Z,9.60
2018-12-05T14:54:50.072Z,9.70
2018-12-05T14:57:23.069Z,9.40
2018-12-05T14:59:55.996Z,10.40
2018-12-05T15:02:28.215Z,10.47
2018-12-05T15:05:01.012Z,8.87
2018-12-05T15:07:34.382Z,9.97
2018-12-05T15:10:08.212Z,9.87
2018-12-05T15:12:38.899Z,9.53
2018-12-05T15:15:10.479Z,10.07
2018-12-05T15:17:42.129Z,9.87
2018-12-05T15:20:11.491Z,10.07
2018-12-05T15:22:41.174Z,11.13
2018-12-05T15:25:10.318Z,11.10
2018-12-05T15:27:39.408Z,11.23
2018-12-05T15:30:08.649Z,11.70
2018-12-05T15:32:37.715Z,11.03
2018-12-05T15:35:06.838Z,11.73
2018-12-05T15:37:35.926Z,12.03
2018-12-05T15:40:08.305Z,11.37
2018-12-05T15:42:38.930Z,12.13
2018-12-05T15:45:21.367Z,11.40
2018-12-05T15:47:49.009Z,11.17
2018-12-05T15:50:22.188Z,11.07
2018-12-05T15:52:55.189Z,10.63
2018-12-05T15:55:27.501Z,11.20
2018-12-05T15:57:58.918Z,11.63
2018-12-05T16:03:27.873Z,11.30
2018-12-05T16:05:57.131Z,10.47
2018-12-05T16:08:26.232Z,10.97
2018-12-05T16:10:55.349Z,10.87
2018-12-05T16:13:24.530Z,10.53
2018-12-05T16:15:55.159Z,10.33
2018-12-05T16:18:26.299Z,10.03
2018-12-05T16:21:00.971Z,10.80
2018-12-05T16:23:31.643Z,10.83
2018-12-05T16:26:00.912Z,10.40
2018-12-05T16:28:31.356Z,10.50
2018-12-05T16:31:00.737Z,10.80
2018-12-05T16:33:32.526Z,9.93
2018-12-05T16:36:01.688Z,10.63
2018-12-05T16:38:37.126Z,10.80
2018-12-05T16:41:14.970Z,10.93
2018-12-05T16:43:47.804Z,10.70
2018-12-05T16:46:20.270Z,10.53
2018-12-05T16:48:53.295Z,11.13
2018-12-05T16:54:28.733Z,10.10
2018-12-05T16:56:57.878Z,10.83
2018-12-05T16:59:27.081Z,11.00
2018-12-05T17:01:56.382Z,11.77
2018-12-05T17:04:27.668Z,11.57
2018-12-05T17:06:56.749Z,10.97
2018-12-05T17:09:28.530Z,10.63
2018-12-05T17:11:59.386Z,10.20
2018-12-05T17:14:33.596Z,11.17
2018-12-05T17:17:04.130Z,11.97
2018-12-05T17:19:34.244Z,10.77
2018-12-05T17:22:16.883Z,10.80
2018-12-05T17:24:46.011Z,11.50
2018-12-05T17:27:15.352Z,10.93
2018-12-05T17:29:44.414Z,11.00
2018-12-05T17:32:13.469Z,10.87
2018-12-05T17:34:42.571Z,10.07
2018-12-05T17:37:11.740Z,11.30
2018-12-05T17:39:40.899Z,10.50
2018-12-05T17:42:10.104Z,10.63
2018-12-05T17:44:39.231Z,10.50
2018-12-05T17:47:08.316Z,10.33
2018-12-05T17:49:37.845Z,10.93
2018-12-05T17:52:06.945Z,10.50
2018-12-05T17:54:36.121Z,11.30
2018-12-05T17:57:05.280Z,11.43
2018-12-05T18:02:38.188Z,10.83
2018-12-05T18:05:08.910Z,11.60
2018-12-05T18:07:38.859Z,12.33
2018-12-05T18:10:08.389Z,11.67
2018-12-05T18:12:37.464Z,10.90
2018-12-05T18:15:06.863Z,11.30
2018-12-05T18:17:35.934Z,10.70
2018-12-05T18:20:06.904Z,11.57
2018-12-05T18:22:35.984Z,10.57
2018-12-05T18:25:05.328Z,11.20
2018-12-05T18:27:34.414Z,11.43
2018-12-05T18:30:04.573Z,10.87
2018-12-05T18:32:35.240Z,10.80
2018-12-05T18:35:04.948Z,11.00
2018-12-05T18:37:34.044Z,12.40
2018-12-05T18:40:06.971Z,11.07
2018-12-05T18:42:36.180Z,12.23
2018-12-05T18:45:06.605Z,11.43
2018-12-05T18:47:37.098Z,14.13
2018-12-05T18:50:11.280Z,12.60
2018-12-05T18:52:44.440Z,11.53
2018-12-05T18:55:17.462Z,11.37
2018-12-05T18:57:50.292Z,11.33
2018-12-05T19:00:25.574Z,11.63
2018-12-05T19:03:00.720Z,10.20
2018-12-05T19:05:38.906Z,14.07
2018-12-05T19:08:17.622Z,12.70
2018-12-05T19:10:51.172Z,12.43
2018-12-05T19:13:24.839Z,12.27
2018-12-05T19:16:03.764Z,14.77
2018-12-05T19:18:37.916Z,13.97
2018-12-05T19:21:12.649Z,12.80
2018-12-05T19:23:47.164Z,12.53
2018-12-05T19:26:23.765Z,11.40
2018-12-05T19:29:01.549Z,12.70
2018-12-05T19:31:38.495Z,12.53
2018-12-05T19:34:16.669Z,13.87
2018-12-05T19:37:00.422Z,15.13
2018-12-05T19:39:34.647Z,15.23
2018-12-05T19:42:07.917Z,15.10
2018-12-05T19:44:43.448Z,15.83
2018-12-05T19:47:18.935Z,16.13
2018-12-05T19:49:51.647Z,13.87
2018-12-05T19:52:25.179Z,12.73
2018-12-05T19:54:58.204Z,12.87
2018-12-05T19:57:33.997Z,11.27
2018-12-05T20:00:08.536Z,11.43
2018-12-05T20:02:45.976Z,11.83
2018-12-05T20:05:27.362Z,11.40
2018-12-05T20:08:01.155Z,11.20
2018-12-05T20:10:49.159Z,11.70
2018-12-05T20:13:25.063Z,11.27
2018-12-05T20:16:02.178Z,11.63
2018-12-05T20:18:35.450Z,11.20
2018-12-05T20:21:15.989Z,11.87
2018-12-05T20:23:50.505Z,11.43
2018-12-05T20:26:22.062Z,12.20
2018-12-05T20:28:55.232Z,12.03
2018-12-05T20:31:32.192Z,11.63
2018-12-05T20:34:06.586Z,11.60
2018-12-05T20:36:39.296Z,10.90
2018-12-05T20:39:15.617Z,10.87
2018-12-05T20:41:57.366Z,11.27
2018-12-05T20:44:30.346Z,11.07
2018-12-05T20:47:04.968Z,11.07
2018-12-05T20:49:41.926Z,10.80
2018-12-05T20:52:16.585Z,12.03
2018-12-05T20:54:51.987Z,11.50
2018-12-05T20:57:28.751Z,11.33
2018-12-05T21:00:51.923Z,11.47
2018-12-05T21:03:24.966Z,12.17
2018-12-05T21:05:57.292Z,12.20
2018-12-05T21:08:30.151Z,11.57
2018-12-05T21:11:03.337Z,11.33
2018-12-05T21:13:38.548Z,11.30
2018-12-05T21:16:11.235Z,12.57
2018-12-05T21:18:44.191Z,11.67
2018-12-05T21:21:16.485Z,11.40
2018-12-05T21:23:49.270Z,12.70
2018-12-05T21:26:19.705Z,11.80
2018-12-05T21:28:51.808Z,12.60
2018-12-05T21:31:23.998Z,13.97
2018-12-05T21:33:56.132Z,11.67
2018-12-05T21:36:29.180Z,12.33
2018-12-05T21:39:01.328Z,11.60
2018-12-05T21:41:35.536Z,11.13
2018-12-05T21:44:07.652Z,10.73
2018-12-05T21:46:39.911Z,11.50
2018-12-05T21:49:12.448Z,11.47
2018-12-05T21:51:45.466Z,11.00
2018-12-05T21:54:17.709Z,11.13
